createdAt,value
2018-09-14T00:01:38.049Z,101342.17
2018-09-14T00:04:07.826Z,101339.55
2018-09-14T00:06:37.488Z,101337.80
2018-09-14T00:09:11.073Z,101339.98
2018-09-14T00:11:40.768Z,101337.34
2018-09-14T00:14:10.430Z,101328.16
2018-09-14T00:16:40.210Z,101328.16
2018-09-14T00:19:09.887Z,101329.91
2018-09-14T00:21:39.541Z,101329.02
2018-09-14T00:24:09.301Z,101329.45
2018-09-14T00:26:38.968Z,101326.38
2018-09-14T00:29:08.660Z,101324.19
2018-09-14T00:31:38.371Z,101325.95
2018-09-14T00:34:08.345Z,101323.75
2018-09-14T00:36:38.028Z,101323.30
2018-09-14T00:39:10.545Z,101320.66
2018-09-14T00:41:40.454Z,101315.84
2018-09-14T00:44:10.334Z,101314.96
2018-09-14T00:46:40.080Z,101309.70
2018-09-14T00:49:09.728Z,101315.83
2018-09-14T00:51:39.416Z,101326.35
2018-09-14T00:54:09.239Z,101325.48
2018-09-14T00:56:38.864Z,101324.16
2018-09-14T00:59:08.569Z,101321.07
2018-09-14T01:01:38.252Z,101317.11
2018-09-14T01:04:07.959Z,101318.41
2018-09-14T01:06:37.573Z,101316.67
2018-09-14T01:09:29.016Z,101319.28
2018-09-14T01:11:59.511Z,101314.88
2018-09-14T01:14:29.459Z,101320.57
2018-09-14T01:16:59.359Z,101314.42
2018-09-14T01:19:29.215Z,101314.44
2018-09-14T01:21:58.815Z,101324.06
2018-09-14T01:24:28.451Z,101321.87
2018-09-14T01:26:58.264Z,101318.80
2018-09-14T01:29:27.855Z,101320.11
2018-09-14T01:31:57.675Z,101324.05
2018-09-14T01:34:27.532Z,101322.27
2018-09-14T01:36:57.139Z,101326.23
2018-09-14T01:39:26.799Z,101325.35
2018-09-14T01:41:56.659Z,101327.10
2018-09-14T01:44:26.371Z,101320.95
2018-09-14T01:46:56.014Z,101319.67
2018-09-14T01:49:25.643Z,101318.36
2018-09-14T01:51:55.273Z,101318.36
2018-09-14T01:54:25.377Z,101318.36
2018-09-14T01:56:55.040Z,101316.17
2018-09-14T01:59:24.520Z,101317.48
2018-09-14T02:01:53.942Z,101309.58
2018-09-14T02:04:23.365Z,101306.09
2018-09-14T02:06:52.755Z,101297.76
2018-09-14T02:09:22.254Z,101295.13
2018-09-14T02:11:51.651Z,101300.83
2018-09-14T02:14:21.104Z,101304.34
2018-09-14T02:16:50.500Z,101314.42
2018-09-14T02:19:20.115Z,101308.30
2018-09-14T02:21:49.844Z,101306.56
2018-09-14T02:24:19.276Z,101304.82
2018-09-14T02:26:48.834Z,101303.09
2018-09-14T02:29:18.248Z,101300.91
2018-09-14T02:31:47.634Z,101305.30
2018-09-14T02:34:17.055Z,101303.53
2018-09-14T02:36:46.469Z,101305.72
2018-09-14T02:39:15.870Z,101310.10
2018-09-14T02:41:45.583Z,101304.41
2018-09-14T02:44:15.024Z,101299.58
2018-09-14T02:46:44.390Z,101307.05
2018-09-14T02:49:13.879Z,101300.48
2018-09-14T02:51:43.277Z,101301.39
2018-09-14T02:54:12.826Z,101300.52
2018-09-14T02:56:42.396Z,101294.80
2018-09-14T02:59:11.771Z,101302.69
2018-09-14T03:01:41.175Z,101297.41
2018-09-14T03:04:10.595Z,101281.19
2018-09-14T03:06:39.983Z,101286.45
2018-09-14T03:09:10.063Z,101292.11
2018-09-14T03:11:39.527Z,101294.69
2018-09-14T03:14:08.912Z,101295.53
2018-09-14T03:16:38.335Z,101296.81
2018-09-14T03:19:07.861Z,101291.97
2018-09-14T03:21:37.235Z,101294.57
2018-09-14T03:24:06.864Z,101290.17
2018-09-14T03:26:36.287Z,101295.81
2018-09-14T03:29:05.805Z,101301.04
2018-09-14T03:31:35.260Z,101297.95
2018-09-14T03:34:04.868Z,101292.25
2018-09-14T03:36:34.256Z,101287.02
2018-09-14T03:39:04.490Z,101298.42
2018-09-14T03:41:33.848Z,101294.07
2018-09-14T03:44:03.224Z,101299.78
2018-09-14T03:46:32.605Z,101293.23
2018-09-14T03:49:02.041Z,101301.57
2018-09-14T03:51:31.500Z,101301.11
2018-09-14T03:54:01.994Z,101304.18
2018-09-14T03:56:31.388Z,101307.25
2018-09-14T03:59:00.808Z,101298.94
2018-09-14T04:01:30.184Z,101307.27
2018-09-14T04:03:59.601Z,101305.07
2018-09-14T04:06:28.991Z,101301.13
2018-09-14T04:08:58.379Z,101302.45
2018-09-14T04:11:27.959Z,101307.27
2018-09-14T04:13:57.407Z,101306.83
2018-09-14T04:16:26.855Z,101307.28
2018-09-14T04:19:02.153Z,101305.95
2018-09-14T04:21:32.792Z,101298.07
2018-09-14T04:24:02.463Z,101300.70
2018-09-14T04:26:31.915Z,101299.38
2018-09-14T04:29:01.627Z,101299.36
2018-09-14T04:31:31.032Z,101305.92
2018-09-14T04:34:00.560Z,101306.36
2018-09-14T04:36:30.086Z,101300.67
2018-09-14T04:38:59.519Z,101306.83
2018-09-14T04:41:28.943Z,101303.31
2018-09-14T04:43:58.324Z,101304.20
2018-09-14T04:46:27.724Z,101305.06
2018-09-14T04:48:57.145Z,101303.31
2018-09-14T04:51:26.557Z,101307.23
2018-09-14T04:53:56.067Z,101304.63
2018-09-14T04:56:25.496Z,101305.52
2018-09-14T04:58:54.969Z,101305.11
2018-09-14T05:01:24.400Z,101306.47
2018-09-14T05:03:53.863Z,101308.69
2018-09-14T05:06:23.291Z,101311.36
2018-09-14T05:08:52.689Z,101311.41
2018-09-14T05:11:22.104Z,101315.80
2018-09-14T05:13:51.520Z,101319.78
2018-09-14T05:16:20.953Z,101322.02
2018-09-14T05:18:50.403Z,101318.92
2018-09-14T05:21:19.908Z,101315.45
2018-09-14T05:23:49.378Z,101321.60
2018-09-14T05:26:18.856Z,101325.16
2018-09-14T05:28:48.437Z,101319.02
2018-09-14T05:31:17.880Z,101323.02
2018-09-14T05:33:47.376Z,101321.70
2018-09-14T05:36:16.812Z,101323.51
2018-09-14T05:38:46.219Z,101326.15
2018-09-14T05:41:15.853Z,101322.25
2018-09-14T05:43:45.270Z,101323.14
2018-09-14T05:46:14.683Z,101323.17
2018-09-14T05:48:44.167Z,101327.56
2018-09-14T05:51:13.615Z,101325.88
2018-09-14T05:53:43.065Z,101328.50
2018-09-14T05:56:12.633Z,101325.02
2018-09-14T05:58:42.088Z,101329.84
2018-09-14T06:01:11.483Z,101332.05
2018-09-14T06:03:41.235Z,101339.07
2018-09-14T06:06:10.623Z,101343.89
2018-09-14T06:08:46.759Z,101345.20
2018-09-14T06:11:16.171Z,101344.31
2018-09-14T06:13:45.583Z,101347.80
2018-09-14T06:16:15.029Z,101348.69
2018-09-14T06:18:44.471Z,101352.59
2018-09-14T06:21:13.875Z,101351.67
2018-09-14T06:23:43.380Z,101352.09
2018-09-14T06:26:12.781Z,101355.57
2018-09-14T06:28:42.187Z,101358.15
2018-09-14T06:31:11.719Z,101355.04
2018-09-14T06:33:41.144Z,101354.52
2018-09-14T06:36:10.585Z,101352.23
2018-09-14T06:38:40.139Z,101351.68
2018-09-14T06:41:09.557Z,101356.38
2018-09-14T06:43:39.008Z,101352.70
2018-09-14T06:46:08.638Z,101347.27
2018-09-14T06:48:38.055Z,101347.06
2018-09-14T06:51:07.582Z,101347.83
2018-09-14T06:53:37.016Z,101348.97
2018-09-14T06:56:06.459Z,101354.16
2018-09-14T06:58:35.881Z,101347.91
2018-09-14T07:01:05.331Z,101349.30
2018-09-14T07:03:34.824Z,101350.67
2018-09-14T07:06:04.264Z,101359.51
2018-09-14T07:08:33.755Z,101358.59
2018-09-14T07:11:03.144Z,101351.84
2018-09-14T07:13:32.546Z,101358.73
2018-09-14T07:16:01.964Z,101360.76
2018-09-14T07:18:31.396Z,101363.65
2018-09-14T07:21:00.828Z,101361.69
2018-09-14T07:23:30.276Z,101365.87
2018-09-14T07:25:59.679Z,101366.52
2018-09-14T07:28:29.087Z,101367.17
2018-09-14T07:30:58.504Z,101371.36
2018-09-14T07:33:27.919Z,101371.67
2018-09-14T07:35:57.357Z,101370.70
2018-09-14T07:38:26.794Z,101369.36
2018-09-14T07:40:56.217Z,101374.14
2018-09-14T07:43:25.666Z,101374.14
2018-09-14T07:45:55.111Z,101375.00
2018-09-14T07:48:24.592Z,101375.32
2018-09-14T07:50:53.977Z,101375.59
2018-09-14T07:53:23.424Z,101384.09
2018-09-14T07:55:52.824Z,101386.09
2018-09-14T07:58:22.231Z,101392.03
2018-09-14T08:00:51.896Z,101387.77
2018-09-14T08:03:21.342Z,101390.05
2018-09-14T08:05:50.780Z,101385.22
2018-09-14T08:08:20.415Z,101386.14
2018-09-14T08:10:49.888Z,101390.55
2018-09-14T08:13:19.399Z,101398.03
2018-09-14T08:15:48.766Z,101393.03
2018-09-14T08:18:18.248Z,101394.98
2018-09-14T08:20:47.678Z,101390.13
2018-09-14T08:23:17.161Z,101392.55
2018-09-14T08:25:46.607Z,101394.89
2018-09-14T08:28:16.068Z,101397.45
2018-09-14T08:30:45.500Z,101386.70
2018-09-14T08:33:15.051Z,101392.19
2018-09-14T08:35:44.513Z,101392.02
2018-09-14T08:38:14.127Z,101396.80
2018-09-14T08:40:43.564Z,101394.26
2018-09-14T08:43:13.022Z,101393.02
2018-09-14T08:45:42.471Z,101392.20
2018-09-14T08:48:11.908Z,101392.97
2018-09-14T08:50:41.412Z,101392.73
2018-09-14T08:53:10.972Z,101393.84
2018-09-14T08:55:40.422Z,101396.42
2018-09-14T08:58:09.874Z,101385.92
2018-09-14T09:00:39.394Z,101385.27
2018-09-14T09:03:08.862Z,101382.09
2018-09-14T09:05:38.295Z,101386.19
2018-09-14T09:08:07.748Z,101383.88
2018-09-14T09:10:37.199Z,101378.78
2018-09-14T09:13:06.613Z,101382.28
2018-09-14T09:15:36.085Z,101385.31
2018-09-14T09:18:05.479Z,101383.25
2018-09-14T09:20:34.854Z,101386.03
2018-09-14T09:23:04.306Z,101383.48
2018-09-14T09:25:33.704Z,101381.42
2018-09-14T09:28:03.144Z,101387.30
2018-09-14T09:30:32.668Z,101384.22
2018-09-14T09:33:02.089Z,101383.18
2018-09-14T09:35:31.541Z,101379.71
2018-09-14T09:38:01.362Z,101381.02
2018-09-14T09:40:30.834Z,101380.23
2018-09-14T09:43:00.305Z,101379.37
2018-09-14T09:45:29.867Z,101379.95
2018-09-14T09:47:59.431Z,101384.12
2018-09-14T09:50:28.927Z,101385.49
2018-09-14T09:52:58.690Z,101381.02
2018-09-14T09:55:28.204Z,101384.38
2018-09-14T09:57:57.643Z,101384.23
2018-09-14T10:00:32.183Z,101379.34
2018-09-14T10:04:09.648Z,101378.98
2018-09-14T10:06:39.025Z,101370.55
2018-09-14T10:09:09.816Z,101372.80
2018-09-14T10:11:39.249Z,101374.06
2018-09-14T10:14:08.751Z,101371.59
2018-09-14T10:16:38.143Z,101373.25
2018-09-14T10:19:07.566Z,101375.28
2018-09-14T10:21:37.114Z,101368.42
2018-09-14T10:24:08.387Z,101376.27
2018-09-14T10:26:37.821Z,101373.88
2018-09-14T10:29:07.788Z,101376.32
2018-09-14T10:31:37.248Z,101371.94
2018-09-14T10:34:13.080Z,101381.34
2018-09-14T10:36:42.532Z,101377.95
2018-09-14T10:39:12.675Z,101376.30
2018-09-14T10:41:42.120Z,101375.48
2018-09-14T10:44:11.530Z,101372.40
2018-09-14T10:46:40.963Z,101374.63
2018-09-14T10:49:10.440Z,101373.85
2018-09-14T10:51:39.852Z,101369.58
2018-09-14T10:54:09.354Z,101373.11
2018-09-14T10:56:38.814Z,101367.82
2018-09-14T10:59:08.208Z,101366.16
2018-09-14T11:01:37.599Z,101366.27
2018-09-14T11:04:07.067Z,101364.09
2018-09-14T11:06:36.498Z,101364.93
2018-09-14T11:09:10.808Z,101366.16
2018-09-14T11:11:40.291Z,101361.24
2018-09-14T11:14:10.133Z,101363.31
2018-09-14T11:16:39.555Z,101358.78
2018-09-14T11:19:09.020Z,101363.77
2018-09-14T11:21:38.408Z,101366.66
2018-09-14T11:24:07.851Z,101360.62
2018-09-14T11:26:37.257Z,101360.11
2018-09-14T11:29:06.679Z,101359.63
2018-09-14T11:31:36.168Z,101354.38
2018-09-14T11:34:06.452Z,101353.33
2018-09-14T11:36:36.621Z,101359.32
2018-09-14T11:39:09.772Z,101356.10
2018-09-14T11:41:39.775Z,101359.28
2018-09-14T11:44:09.791Z,101351.52
2018-09-14T11:46:39.569Z,101351.86
2018-09-14T11:49:09.584Z,101348.27
2018-09-14T11:51:39.205Z,101347.81
2018-09-14T11:54:09.149Z,101339.86
2018-09-14T11:56:38.762Z,101337.63
2018-09-14T11:59:08.408Z,101337.98
2018-09-14T12:01:38.185Z,101329.83
2018-09-14T12:04:07.862Z,101337.63
2018-09-14T12:06:37.800Z,101335.38
2018-09-14T12:09:11.180Z,101331.19
2018-09-14T12:11:41.239Z,101328.83
2018-09-14T12:14:11.366Z,101327.63
2018-09-14T12:16:41.209Z,101328.46
2018-09-14T12:19:11.038Z,101322.00
2018-09-14T12:21:40.794Z,101319.97
2018-09-14T12:24:10.845Z,101320.39
2018-09-14T12:26:40.603Z,101323.20
2018-09-14T12:29:10.356Z,101319.47
2018-09-14T12:31:40.160Z,101321.47
2018-09-14T12:34:09.718Z,101323.78
2018-09-14T12:36:39.405Z,101319.56
2018-09-14T12:39:10.443Z,101315.70
2018-09-14T12:41:40.276Z,101321.23
2018-09-14T12:44:10.128Z,101315.91
2018-09-14T12:46:39.878Z,101318.02
2018-09-14T12:49:10.037Z,101308.98
2018-09-14T12:51:39.960Z,101312.30
2018-09-14T12:54:10.113Z,101302.72
2018-09-14T12:56:41.770Z,101298.77
2018-09-14T12:59:11.531Z,101302.41
2018-09-14T13:01:41.782Z,101295.67
2018-09-14T13:04:11.539Z,101293.11
2018-09-14T13:06:41.529Z,101297.38
2018-09-14T13:09:12.496Z,101286.11
2018-09-14T13:11:42.398Z,101284.77
2018-09-14T13:14:12.049Z,101282.88
2018-09-14T13:16:41.783Z,101289.55
2018-09-14T13:19:11.580Z,101286.16
2018-09-14T13:21:41.243Z,101280.48
2018-09-14T13:24:10.936Z,101288.74
2018-09-14T13:26:40.785Z,101285.69
2018-09-14T13:29:10.555Z,101283.98
2018-09-14T13:31:40.553Z,101272.73
2018-09-14T13:34:10.472Z,101271.20
2018-09-14T13:36:40.043Z,101266.21
2018-09-14T13:39:10.731Z,101265.84
2018-09-14T13:41:40.159Z,101262.09
2018-09-14T13:44:09.692Z,101267.42
2018-09-14T13:46:39.123Z,101260.52
2018-09-14T13:49:08.543Z,101264.46
2018-09-14T13:51:37.990Z,101269.09
2018-09-14T13:54:07.477Z,101265.38
2018-09-14T13:56:36.922Z,101259.30
2018-09-14T13:59:06.408Z,101255.80
2018-09-14T14:01:35.858Z,101259.38
2018-09-14T14:04:05.580Z,101255.22
2018-09-14T14:06:34.985Z,101256.73
2018-09-14T14:09:06.647Z,101254.48
2018-09-14T14:11:36.103Z,101249.66
2018-09-14T14:14:05.585Z,101250.27
2018-09-14T14:16:35.041Z,101245.95
2018-09-14T14:19:04.453Z,101242.49
2018-09-14T14:21:33.861Z,101248.47
2018-09-14T14:24:03.334Z,101239.73
2018-09-14T14:26:33.039Z,101241.59
2018-09-14T14:29:02.579Z,101243.00
2018-09-14T14:31:32.023Z,101228.03
2018-09-14T14:34:01.456Z,101232.93
2018-09-14T14:36:31.050Z,101230.27
2018-09-14T14:39:00.556Z,101226.16
2018-09-14T14:41:30.981Z,101229.23
2018-09-14T14:44:00.379Z,101214.91
2018-09-14T14:46:30.058Z,101216.00
2018-09-14T14:48:59.627Z,101214.20
2018-09-14T14:51:29.043Z,101214.33
2018-09-14T14:53:58.523Z,101210.72
2018-09-14T14:56:28.072Z,101211.34
2018-09-14T14:58:57.556Z,101205.51
2018-09-14T15:01:26.989Z,101204.50
2018-09-14T15:03:56.421Z,101205.95
2018-09-14T15:06:25.840Z,101202.61
2018-09-14T15:08:55.375Z,101206.83
2018-09-14T15:11:24.775Z,101203.11
2018-09-14T15:13:54.216Z,101196.00
2018-09-14T15:16:23.656Z,101197.59
2018-09-14T15:18:53.260Z,101201.13
2018-09-14T15:21:22.691Z,101197.27
2018-09-14T15:23:52.147Z,101198.97
2018-09-14T15:26:21.573Z,101196.19
2018-09-14T15:28:51.005Z,101198.13
2018-09-14T15:31:20.489Z,101195.66
2018-09-14T15:33:49.940Z,101191.71
2018-09-14T15:36:19.393Z,101186.69
2018-09-14T15:38:49.028Z,101194.59
2018-09-14T15:41:18.468Z,101186.36
2018-09-14T15:43:47.906Z,101179.41
2018-09-14T15:46:17.380Z,101183.97
2018-09-14T15:48:46.899Z,101191.98
2018-09-14T15:51:16.556Z,101188.03
2018-09-14T15:53:46.009Z,101178.42
2018-09-14T15:56:15.449Z,101183.98
2018-09-14T15:58:44.927Z,101180.22
2018-09-14T16:01:14.550Z,101178.23
2018-09-14T16:03:43.947Z,101177.19
2018-09-14T16:06:13.379Z,101179.53
2018-09-14T16:08:43.372Z,101178.27
2018-09-14T16:11:12.833Z,101173.03
2018-09-14T16:13:42.269Z,101177.60
2018-09-14T16:16:11.648Z,101176.93
2018-09-14T16:18:41.040Z,101182.83
2018-09-14T16:21:10.435Z,101182.86
2018-09-14T16:23:39.918Z,101182.50
2018-09-14T16:26:10.512Z,101181.27
2018-09-14T16:28:39.922Z,101180.11
2018-09-14T16:31:09.365Z,101184.67
2018-09-14T16:33:38.905Z,101180.48
2018-09-14T16:36:08.441Z,101188.67
2018-09-14T16:38:37.872Z,101185.89
2018-09-14T16:41:07.437Z,101183.98
2018-09-14T16:43:36.840Z,101181.19
2018-09-14T16:46:06.447Z,101185.05
2018-09-14T16:48:35.880Z,101184.41
2018-09-14T16:51:05.286Z,101185.48
2018-09-14T16:53:34.730Z,101187.86
2018-09-14T16:56:04.183Z,101189.34
2018-09-14T16:58:33.599Z,101188.56
2018-09-14T17:01:03.065Z,101189.61
2018-09-14T17:03:32.483Z,101187.97
2018-09-14T17:06:01.869Z,101190.31
2018-09-14T17:08:31.313Z,101193.99
2018-09-14T17:11:00.721Z,101192.39
2018-09-14T17:13:30.144Z,101195.64
2018-09-14T17:15:59.600Z,101191.78
2018-09-14T17:18:29.003Z,101185.77
2018-09-14T17:20:58.428Z,101179.30
2018-09-14T17:23:27.857Z,101182.04
2018-09-14T17:25:57.365Z,101184.39
2018-09-14T17:28:26.756Z,101186.26
2018-09-14T17:30:56.440Z,101185.49
2018-09-14T17:33:25.831Z,101189.59
2018-09-14T17:35:55.591Z,101181.78
2018-09-14T17:38:25.105Z,101188.45
2018-09-14T17:40:54.521Z,101185.03
2018-09-14T17:43:23.960Z,101186.41
2018-09-14T17:45:53.436Z,101192.21
2018-09-14T17:48:22.824Z,101200.16
2018-09-14T17:50:52.277Z,101191.80
2018-09-14T17:53:22.828Z,101200.61
2018-09-14T17:55:52.268Z,101196.66
2018-09-14T17:58:21.688Z,101205.46
2018-09-14T18:00:51.156Z,101208.97
2018-09-14T18:03:20.817Z,101203.69
2018-09-14T18:05:50.164Z,101200.59
2018-09-14T18:08:19.622Z,101205.87
2018-09-14T18:10:49.061Z,101200.16
2018-09-14T18:13:18.532Z,101195.36
2018-09-14T18:15:47.983Z,101197.15
2018-09-14T18:18:17.416Z,101198.09
2018-09-14T18:20:46.820Z,101201.20
2018-09-14T18:23:16.246Z,101200.35
2018-09-14T18:25:45.684Z,101195.13
2018-09-14T18:28:15.252Z,101195.18
2018-09-14T18:30:44.804Z,101200.55
2018-09-14T18:33:14.239Z,101207.23
2018-09-14T18:35:43.646Z,101206.85
2018-09-14T18:38:13.176Z,101202.98
2018-09-14T18:40:42.634Z,101205.68
2018-09-14T18:43:12.101Z,101201.31
2018-09-14T18:45:41.544Z,101197.81
2018-09-14T18:48:10.992Z,101204.89
2018-09-14T18:50:40.403Z,101201.84
2018-09-14T18:53:10.628Z,101196.64
2018-09-14T18:55:40.106Z,101198.86
2018-09-14T18:58:09.500Z,101201.08
2018-09-14T19:00:39.053Z,101198.49
2018-09-14T19:03:08.498Z,101202.05
2018-09-14T19:05:37.915Z,101205.12
2018-09-14T19:08:07.435Z,101209.12
2018-09-14T19:10:36.844Z,101206.05
2018-09-14T19:13:06.279Z,101202.56
2018-09-14T19:15:35.764Z,101199.05
2018-09-14T19:18:05.188Z,101205.22
2018-09-14T19:20:34.744Z,101212.23
2018-09-14T19:23:04.156Z,101199.53
2018-09-14T19:25:33.576Z,101211.38
2018-09-14T19:28:03.012Z,101214.88
2018-09-14T19:30:32.592Z,101209.16
2018-09-14T19:33:01.991Z,101213.09
2018-09-14T19:35:31.422Z,101215.28
2018-09-14T19:38:01.936Z,101212.23
2018-09-14T19:40:32.541Z,101220.55
2018-09-14T19:43:02.177Z,101212.20
2018-09-14T19:45:31.640Z,101217.90
2018-09-14T19:48:01.454Z,101225.38
2018-09-14T19:50:31.045Z,101213.95
2018-09-14T19:53:02.347Z,101217.89
2018-09-14T19:55:31.958Z,101214.80
2018-09-14T19:58:02.033Z,101217.45
2018-09-14T20:00:31.471Z,101211.30
2018-09-14T20:03:00.899Z,101212.17
2018-09-14T20:05:30.290Z,101206.45
2018-09-14T20:07:59.685Z,101202.96
2018-09-14T20:10:29.298Z,101208.20
2018-09-14T20:12:58.713Z,101206.44
2018-09-14T20:15:28.173Z,101212.55
2018-09-14T20:17:57.783Z,101209.06
2018-09-14T20:20:27.119Z,101208.59
2018-09-14T20:22:56.523Z,101215.16
2018-09-14T20:25:26.007Z,101218.20
2018-09-14T20:27:55.405Z,101215.58
2018-09-14T20:30:24.848Z,101216.47
2018-09-14T20:32:54.435Z,101215.19
2018-09-14T20:35:23.838Z,101208.62
2018-09-14T20:37:53.240Z,101209.96
2018-09-14T20:40:22.668Z,101210.86
2018-09-14T20:42:52.081Z,101214.83
2018-09-14T20:45:22.165Z,101215.27
2018-09-14T20:47:51.764Z,101200.38
2018-09-14T20:50:21.196Z,101204.31
2018-09-14T20:52:50.600Z,101202.13
2018-09-14T20:55:20.460Z,101203.94
2018-09-14T20:57:49.930Z,101196.45
2018-09-14T21:00:23.947Z,101204.80
2018-09-14T21:02:54.191Z,101206.99
2018-09-14T21:05:23.639Z,101214.89
2018-09-14T21:07:53.243Z,101207.88
2018-09-14T21:10:22.631Z,101208.75
2018-09-14T21:12:52.040Z,101211.81
2018-09-14T21:15:21.515Z,101210.50
2018-09-14T21:17:50.917Z,101210.93
2018-09-14T21:20:20.377Z,101209.61
2018-09-14T21:22:49.827Z,101207.45
2018-09-14T21:25:19.259Z,101209.64
2018-09-14T21:27:48.740Z,101204.81
2018-09-14T21:30:18.175Z,101203.89
2018-09-14T21:32:47.588Z,101209.59
2018-09-14T21:35:17.008Z,101205.21
2018-09-14T21:37:46.441Z,101201.70
2018-09-14T21:40:15.885Z,101198.23
2018-09-14T21:42:45.623Z,101199.11
2018-09-14T21:45:15.064Z,101200.42
2018-09-14T21:47:44.451Z,101200.86
2018-09-14T21:50:13.853Z,101193.37
2018-09-14T21:52:43.276Z,101192.06
2018-09-14T21:55:13.337Z,101194.27
2018-09-14T21:57:43.040Z,101196.90
2018-09-14T22:00:18.046Z,101199.97
2018-09-14T22:02:47.552Z,101189.86
2018-09-14T22:05:17.060Z,101183.72
2018-09-14T22:07:46.700Z,101186.79
2018-09-14T22:10:16.141Z,101186.35
2018-09-14T22:12:45.728Z,101192.06
2018-09-14T22:15:15.188Z,101187.23
2018-09-14T22:17:44.651Z,101185.88
2018-09-14T22:20:14.126Z,101189.83
2018-09-14T22:22:45.078Z,101186.77
2018-09-14T22:25:14.508Z,101188.52
2018-09-14T22:27:43.966Z,101182.37
2018-09-14T22:30:13.340Z,101183.25
2018-09-14T22:32:42.748Z,101186.33
2018-09-14T22:35:12.217Z,101180.19
2018-09-14T22:37:42.334Z,101181.94
2018-09-14T22:40:12.136Z,101181.50
2018-09-14T22:42:41.552Z,101180.62
2018-09-14T22:45:11.072Z,101177.11
2018-09-14T22:47:40.452Z,101176.63
2018-09-14T22:50:09.900Z,101175.31
2018-09-14T22:52:39.329Z,101175.75
2018-09-14T22:55:08.896Z,101174.44
2018-09-14T22:57:38.417Z,101170.92
2018-09-14T23:00:08.020Z,101174.44
2018-09-14T23:02:37.448Z,101171.80
2018-09-14T23:05:06.915Z,101168.29
2018-09-14T23:07:36.340Z,101166.53
2018-09-14T23:10:05.802Z,101160.83
2018-09-14T23:12:35.200Z,101160.38
2018-09-14T23:15:04.875Z,101163.89
2018-09-14T23:17:34.262Z,101163.02
2018-09-14T23:20:04.016Z,101157.27
2018-09-14T23:22:33.456Z,101161.66
2018-09-14T23:25:02.949Z,101159.91
2018-09-14T23:27:32.362Z,101160.78
2018-09-14T23:30:01.829Z,101156.39
2018-09-14T23:32:31.256Z,101163.42
2018-09-14T23:35:00.676Z,101155.08
2018-09-14T23:37:30.144Z,101155.11
2018-09-14T23:39:59.717Z,101154.23
2018-09-14T23:42:29.229Z,101156.00
2018-09-14T23:44:58.660Z,101160.39
2018-09-14T23:47:28.316Z,101162.63
2018-09-14T23:49:57.781Z,101159.55
2018-09-14T23:52:27.211Z,101157.39
2018-09-14T23:54:56.604Z,101159.14
2018-09-14T23:57:26.038Z,101153.91
2018-09-14T23:59:55.507Z,101164.02
